sensor_id;sensor_type;location;lat;lon;timestamp;P1;durP1;ratioP1;P2;durP2;ratioP2
52984;SDS011;40499;47.830;19.026;2022-07-26T00:01:11;8.90;;;2.97;;
52984;SDS011;40499;47.830;19.026;2022-07-26T00:03:36;4.20;;;2.50;;
52984;SDS011;40499;47.830;19.026;2022-07-26T00:06:02;6.53;;;2.78;;
52984;SDS011;40499;47.830;19.026;2022-07-26T00:08:27;5.05;;;2.63;;
52984;SDS011;40499;47.830;19.026;2022-07-26T00:10:53;4.53;;;2.92;;
52984;SDS011;40499;47.830;19.026;2022-07-26T00:13:18;6.47;;;3.03;;
52984;SDS011;40499;47.830;19.026;2022-07-26T00:15:45;5.13;;;2.90;;
52984;SDS011;40499;47.830;19.026;2022-07-26T00:18:13;3.40;;;2.33;;
52984;SDS011;40499;47.830;19.026;2022-07-26T00:20:39;5.55;;;3.38;;
52984;SDS011;40499;47.830;19.026;2022-07-26T00:23:05;4.13;;;2.40;;
52984;SDS011;40499;47.830;19.026;2022-07-26T00:25:31;7.43;;;2.67;;
52984;SDS011;40499;47.830;19.026;2022-07-26T00:27:56;5.90;;;2.90;;
52984;SDS011;40499;47.830;19.026;2022-07-26T00:30:22;4.53;;;2.63;;
52984;SDS011;40499;47.830;19.026;2022-07-26T00:32:48;3.83;;;2.83;;
52984;SDS011;40499;47.830;19.026;2022-07-26T00:35:14;4.95;;;3.08;;
52984;SDS011;40499;47.830;19.026;2022-07-26T00:37:39;4.75;;;3.17;;
52984;SDS011;40499;47.830;19.026;2022-07-26T00:40:05;6.32;;;2.70;;
52984;SDS011;40499;47.830;19.026;2022-07-26T00:42:32;3.50;;;2.60;;
52984;SDS011;40499;47.830;19.026;2022-07-26T00:44:57;5.57;;;2.85;;
52984;SDS011;40499;47.830;19.026;2022-07-26T00:47:23;7.25;;;2.78;;
52984;SDS011;40499;47.830;19.026;2022-07-26T00:49:48;3.92;;;2.90;;
52984;SDS011;40499;47.830;19.026;2022-07-26T00:52:14;6.20;;;2.50;;
52984;SDS011;40499;47.830;19.026;2022-07-26T00:54:41;5.63;;;2.60;;
52984;SDS011;40499;47.830;19.026;2022-07-26T00:57:13;5.88;;;2.88;;
52984;SDS011;40499;47.830;19.026;2022-07-26T00:59:39;13.85;;;4.45;;
52984;SDS011;40499;47.830;19.026;2022-07-26T01:02:06;9.57;;;2.88;;
52984;SDS011;40499;47.830;19.026;2022-07-26T01:04:33;4.55;;;2.50;;
52984;SDS011;40499;47.830;19.026;2022-07-26T01:07:00;3.80;;;2.45;;
52984;SDS011;40499;47.830;19.026;2022-07-26T01:09:26;6.72;;;2.90;;
52984;SDS011;40499;47.830;19.026;2022-07-26T01:11:51;4.75;;;2.97;;
52984;SDS011;40499;47.830;19.026;2022-07-26T01:14:20;8.98;;;3.03;;
52984;SDS011;40499;47.830;19.026;2022-07-26T01:16:47;6.10;;;3.00;;
52984;SDS011;40499;47.830;19.026;2022-07-26T01:19:13;5.82;;;3.20;;
52984;SDS011;40499;47.830;19.026;2022-07-26T01:21:39;5.28;;;2.92;;
52984;SDS011;40499;47.830;19.026;2022-07-26T01:24:05;7.93;;;3.55;;
52984;SDS011;40499;47.830;19.026;2022-07-26T01:26:30;3.67;;;2.85;;
52984;SDS011;40499;47.830;19.026;2022-07-26T01:28:56;4.20;;;2.92;;
52984;SDS011;40499;47.830;19.026;2022-07-26T01:31:22;3.45;;;2.47;;
52984;SDS011;40499;47.830;19.026;2022-07-26T01:33:48;6.50;;;2.97;;
52984;SDS011;40499;47.830;19.026;2022-07-26T01:36:14;6.20;;;3.30;;
52984;SDS011;40499;47.830;19.026;2022-07-26T01:38:39;5.35;;;3.30;;
52984;SDS011;40499;47.830;19.026;2022-07-26T01:41:05;4.32;;;2.92;;
52984;SDS011;40499;47.830;19.026;2022-07-26T01:43:31;8.85;;;4.47;;
52984;SDS011;40499;47.830;19.026;2022-07-26T01:45:56;6.35;;;2.60;;
52984;SDS011;40499;47.830;19.026;2022-07-26T01:48:22;4.35;;;2.47;;
52984;SDS011;40499;47.830;19.026;2022-07-26T01:50:47;5.13;;;3.20;;
52984;SDS011;40499;47.830;19.026;2022-07-26T01:53:13;7.03;;;2.95;;
52984;SDS011;40499;47.830;19.026;2022-07-26T01:55:38;8.05;;;3.10;;
52984;SDS011;40499;47.830;19.026;2022-07-26T01:58:04;3.70;;;2.78;;
52984;SDS011;40499;47.830;19.026;2022-07-26T02:00:30;4.78;;;2.88;;
52984;SDS011;40499;47.830;19.026;2022-07-26T02:02:57;4.03;;;2.83;;
52984;SDS011;40499;47.830;19.026;2022-07-26T02:05:22;5.07;;;3.28;;
52984;SDS011;40499;47.830;19.026;2022-07-26T02:07:48;6.55;;;2.90;;
52984;SDS011;40499;47.830;19.026;2022-07-26T02:10:14;11.32;;;2.63;;
52984;SDS011;40499;47.830;19.026;2022-07-26T02:12:40;4.82;;;2.92;;
52984;SDS011;40499;47.830;19.026;2022-07-26T02:15:06;5.38;;;2.42;;
52984;SDS011;40499;47.830;19.026;2022-07-26T02:17:33;4.15;;;2.40;;
52984;SDS011;40499;47.830;19.026;2022-07-26T02:19:58;7.32;;;2.97;;
52984;SDS011;40499;47.830;19.026;2022-07-26T02:22:24;5.85;;;2.97;;
52984;SDS011;40499;47.830;19.026;2022-07-26T02:24:50;5.53;;;2.92;;
52984;SDS011;40499;47.830;19.026;2022-07-26T02:27:15;4.45;;;3.35;;
52984;SDS011;40499;47.830;19.026;2022-07-26T02:29:41;5.53;;;3.10;;
52984;SDS011;40499;47.830;19.026;2022-07-26T02:32:07;6.25;;;3.05;;
52984;SDS011;40499;47.830;19.026;2022-07-26T02:34:33;4.40;;;2.90;;
52984;SDS011;40499;47.830;19.026;2022-07-26T02:36:58;9.13;;;3.10;;
52984;SDS011;40499;47.830;19.026;2022-07-26T02:39:25;5.22;;;2.90;;
52984;SDS011;40499;47.830;19.026;2022-07-26T02:41:54;4.32;;;3.13;;
52984;SDS011;40499;47.830;19.026;2022-07-26T02:44:21;7.13;;;3.00;;
52984;SDS011;40499;47.830;19.026;2022-07-26T02:46:49;4.43;;;2.88;;
52984;SDS011;40499;47.830;19.026;2022-07-26T02:49:15;7.07;;;3.10;;
52984;SDS011;40499;47.830;19.026;2022-07-26T02:51:40;6.25;;;3.10;;
52984;SDS011;40499;47.830;19.026;2022-07-26T02:54:05;10.77;;;3.33;;
52984;SDS011;40499;47.830;19.026;2022-07-26T02:56:31;6.10;;;3.53;;
52984;SDS011;40499;47.830;19.026;2022-07-26T02:58:56;4.50;;;2.88;;
52984;SDS011;40499;47.830;19.026;2022-07-26T03:01:22;8.45;;;3.00;;
52984;SDS011;40499;47.830;19.026;2022-07-26T03:03:47;6.47;;;3.00;;
52984;SDS011;40499;47.830;19.026;2022-07-26T03:06:13;5.90;;;3.15;;
52984;SDS011;40499;47.830;19.026;2022-07-26T03:08:38;6.60;;;2.90;;
52984;SDS011;40499;47.830;19.026;2022-07-26T03:11:04;6.88;;;3.40;;
52984;SDS011;40499;47.830;19.026;2022-07-26T03:13:30;6.07;;;2.88;;
52984;SDS011;40499;47.830;19.026;2022-07-26T03:15:56;5.57;;;3.03;;
52984;SDS011;40499;47.830;19.026;2022-07-26T03:18:22;5.97;;;3.25;;
52984;SDS011;40499;47.830;19.026;2022-07-26T03:20:47;4.30;;;2.85;;
52984;SDS011;40499;47.830;19.026;2022-07-26T03:23:13;4.88;;;3.00;;
52984;SDS011;40499;47.830;19.026;2022-07-26T03:25:39;6.30;;;3.47;;
52984;SDS011;40499;47.830;19.026;2022-07-26T03:28:05;4.10;;;2.88;;
52984;SDS011;40499;47.830;19.026;2022-07-26T03:30:30;5.47;;;3.20;;
52984;SDS011;40499;47.830;19.026;2022-07-26T03:32:56;5.18;;;3.15;;
52984;SDS011;40499;47.830;19.026;2022-07-26T03:35:21;6.90;;;3.50;;
52984;SDS011;40499;47.830;19.026;2022-07-26T03:37:46;4.65;;;3.30;;
52984;SDS011;40499;47.830;19.026;2022-07-26T03:40:13;5.38;;;2.50;;
52984;SDS011;40499;47.830;19.026;2022-07-26T03:42:39;9.18;;;3.72;;
52984;SDS011;40499;47.830;19.026;2022-07-26T03:45:05;6.15;;;2.63;;
52984;SDS011;40499;47.830;19.026;2022-07-26T03:47:31;5.10;;;3.30;;
52984;SDS011;40499;47.830;19.026;2022-07-26T03:49:56;7.05;;;2.67;;
52984;SDS011;40499;47.830;19.026;2022-07-26T03:52:21;4.72;;;3.08;;
52984;SDS011;40499;47.830;19.026;2022-07-26T03:54:47;5.00;;;2.80;;
52984;SDS011;40499;47.830;19.026;2022-07-26T03:57:12;5.95;;;3.00;;
52984;SDS011;40499;47.830;19.026;2022-07-26T03:59:38;4.03;;;3.15;;
52984;SDS011;40499;47.830;19.026;2022-07-26T04:02:03;4.32;;;3.08;;
52984;SDS011;40499;47.830;19.026;2022-07-26T04:04:28;3.58;;;2.63;;
52984;SDS011;40499;47.830;19.026;2022-07-26T04:06:54;6.10;;;3.20;;
52984;SDS011;40499;47.830;19.026;2022-07-26T04:09:20;5.75;;;3.03;;
52984;SDS011;40499;47.830;19.026;2022-07-26T04:11:46;5.57;;;3.03;;
52984;SDS011;40499;47.830;19.026;2022-07-26T04:14:12;14.32;;;3.60;;
52984;SDS011;40499;47.830;19.026;2022-07-26T04:16:38;6.35;;;2.60;;
52984;SDS011;40499;47.830;19.026;2022-07-26T04:19:03;6.55;;;2.83;;
52984;SDS011;40499;47.830;19.026;2022-07-26T04:21:29;5.60;;;2.60;;
52984;SDS011;40499;47.830;19.026;2022-07-26T04:23:54;6.32;;;2.75;;
52984;SDS011;40499;47.830;19.026;2022-07-26T04:26:19;6.40;;;2.72;;
52984;SDS011;40499;47.830;19.026;2022-07-26T04:28:45;3.80;;;2.75;;
52984;SDS011;40499;47.830;19.026;2022-07-26T04:31:11;4.80;;;2.78;;
52984;SDS011;40499;47.830;19.026;2022-07-26T04:33:37;4.95;;;3.03;;
52984;SDS011;40499;47.830;19.026;2022-07-26T04:36:02;5.20;;;3.00;;
52984;SDS011;40499;47.830;19.026;2022-07-26T04:38:28;5.60;;;3.35;;
52984;SDS011;40499;47.830;19.026;2022-07-26T04:40:53;6.50;;;2.83;;
52984;SDS011;40499;47.830;19.026;2022-07-26T04:43:20;9.45;;;2.92;;
52984;SDS011;40499;47.830;19.026;2022-07-26T04:45:46;6.63;;;2.20;;
52984;SDS011;40499;47.830;19.026;2022-07-26T04:48:12;7.18;;;3.10;;
52984;SDS011;40499;47.830;19.026;2022-07-26T04:50:38;5.15;;;2.50;;
52984;SDS011;40499;47.830;19.026;2022-07-26T04:53:04;7.03;;;2.70;;
52984;SDS011;40499;47.830;19.026;2022-07-26T04:55:30;7.72;;;3.00;;
52984;SDS011;40499;47.830;19.026;2022-07-26T04:57:55;6.57;;;2.45;;
52984;SDS011;40499;47.830;19.026;2022-07-26T05:00:21;6.03;;;2.42;;
52984;SDS011;40499;47.830;19.026;2022-07-26T05:02:54;6.05;;;2.78;;
52984;SDS011;40499;47.830;19.026;2022-07-26T05:05:21;4.80;;;2.30;;
52984;SDS011;40499;47.830;19.026;2022-07-26T05:07:49;6.50;;;2.53;;
52984;SDS011;40499;47.830;19.026;2022-07-26T05:10:17;9.88;;;2.65;;
52984;SDS011;40499;47.830;19.026;2022-07-26T05:12:44;18.40;;;3.10;;
52984;SDS011;40499;47.830;19.026;2022-07-26T05:15:10;7.15;;;2.65;;
52984;SDS011;40499;47.830;19.026;2022-07-26T05:17:36;6.82;;;2.58;;
52984;SDS011;40499;47.830;19.026;2022-07-26T05:20:03;4.05;;;2.60;;
52984;SDS011;40499;47.830;19.026;2022-07-26T05:22:30;4.47;;;2.30;;
52984;SDS011;40499;47.830;19.026;2022-07-26T05:24:56;4.40;;;2.50;;
52984;SDS011;40499;47.830;19.026;2022-07-26T05:27:21;7.00;;;3.15;;
52984;SDS011;40499;47.830;19.026;2022-07-26T05:29:46;5.38;;;2.55;;
52984;SDS011;40499;47.830;19.026;2022-07-26T05:32:12;9.75;;;2.85;;
52984;SDS011;40499;47.830;19.026;2022-07-26T05:34:37;7.15;;;2.55;;
52984;SDS011;40499;47.830;19.026;2022-07-26T05:37:03;8.35;;;2.95;;
52984;SDS011;40499;47.830;19.026;2022-07-26T05:39:28;8.10;;;2.58;;
52984;SDS011;40499;47.830;19.026;2022-07-26T05:41:54;8.43;;;2.85;;
52984;SDS011;40499;47.830;19.026;2022-07-26T05:44:19;4.60;;;2.40;;
52984;SDS011;40499;47.830;19.026;2022-07-26T05:46:44;10.48;;;2.60;;
52984;SDS011;40499;47.830;19.026;2022-07-26T05:49:10;5.55;;;2.78;;
52984;SDS011;40499;47.830;19.026;2022-07-26T05:51:35;5.10;;;2.60;;
52984;SDS011;40499;47.830;19.026;2022-07-26T05:54:01;4.85;;;2.55;;
52984;SDS011;40499;47.830;19.026;2022-07-26T05:56:26;8.43;;;3.25;;
52984;SDS011;40499;47.830;19.026;2022-07-26T05:58:51;10.13;;;3.05;;
52984;SDS011;40499;47.830;19.026;2022-07-26T06:01:17;7.38;;;2.60;;
52984;SDS011;40499;47.830;19.026;2022-07-26T06:03:42;5.80;;;2.80;;
52984;SDS011;40499;47.830;19.026;2022-07-26T06:06:07;8.07;;;3.45;;
52984;SDS011;40499;47.830;19.026;2022-07-26T06:08:33;6.18;;;2.83;;
52984;SDS011;40499;47.830;19.026;2022-07-26T06:11:00;7.45;;;2.85;;
52984;SDS011;40499;47.830;19.026;2022-07-26T06:13:25;8.02;;;3.60;;
52984;SDS011;40499;47.830;19.026;2022-07-26T06:15:51;8.70;;;3.97;;
52984;SDS011;40499;47.830;19.026;2022-07-26T06:18:16;5.97;;;3.50;;
52984;SDS011;40499;47.830;19.026;2022-07-26T06:20:42;7.70;;;2.85;;
52984;SDS011;40499;47.830;19.026;2022-07-26T06:23:09;7.70;;;3.25;;
52984;SDS011;40499;47.830;19.026;2022-07-26T06:25:35;6.97;;;3.25;;
52984;SDS011;40499;47.830;19.026;2022-07-26T06:28:03;4.68;;;2.90;;
52984;SDS011;40499;47.830;19.026;2022-07-26T06:30:30;8.77;;;2.70;;
52984;SDS011;40499;47.830;19.026;2022-07-26T06:32:55;7.47;;;3.58;;
52984;SDS011;40499;47.830;19.026;2022-07-26T06:35:21;7.18;;;3.55;;
52984;SDS011;40499;47.830;19.026;2022-07-26T06:37:48;8.13;;;3.42;;
52984;SDS011;40499;47.830;19.026;2022-07-26T06:40:14;8.40;;;3.70;;
52984;SDS011;40499;47.830;19.026;2022-07-26T06:42:39;9.70;;;3.55;;
52984;SDS011;40499;47.830;19.026;2022-07-26T06:45:05;7.03;;;3.45;;
52984;SDS011;40499;47.830;19.026;2022-07-26T06:47:31;7.60;;;3.63;;
52984;SDS011;40499;47.830;19.026;2022-07-26T06:49:57;9.10;;;3.80;;
52984;SDS011;40499;47.830;19.026;2022-07-26T06:52:22;5.40;;;3.63;;
52984;SDS011;40499;47.830;19.026;2022-07-26T06:54:48;6.45;;;3.95;;
52984;SDS011;40499;47.830;19.026;2022-07-26T06:57:14;7.13;;;4.20;;
52984;SDS011;40499;47.830;19.026;2022-07-26T06:59:40;9.90;;;4.15;;
52984;SDS011;40499;47.830;19.026;2022-07-26T07:02:05;6.72;;;4.40;;
52984;SDS011;40499;47.830;19.026;2022-07-26T07:04:31;9.00;;;4.15;;
52984;SDS011;40499;47.830;19.026;2022-07-26T07:06:58;6.45;;;3.83;;
52984;SDS011;40499;47.830;19.026;2022-07-26T07:09:29;9.40;;;4.20;;
52984;SDS011;40499;47.830;19.026;2022-07-26T07:11:54;7.25;;;4.15;;
52984;SDS011;40499;47.830;19.026;2022-07-26T07:14:20;5.63;;;3.83;;
52984;SDS011;40499;47.830;19.026;2022-07-26T07:16:46;6.78;;;3.58;;
52984;SDS011;40499;47.830;19.026;2022-07-26T07:19:12;6.95;;;4.13;;
52984;SDS011;40499;47.830;19.026;2022-07-26T07:21:37;7.72;;;3.72;;
52984;SDS011;40499;47.830;19.026;2022-07-26T07:24:03;6.45;;;3.60;;
52984;SDS011;40499;47.830;19.026;2022-07-26T07:26:29;7.78;;;3.33;;
52984;SDS011;40499;47.830;19.026;2022-07-26T07:28:55;9.75;;;4.03;;
52984;SDS011;40499;47.830;19.026;2022-07-26T07:31:20;8.05;;;3.85;;
52984;SDS011;40499;47.830;19.026;2022-07-26T07:33:46;8.25;;;5.05;;
52984;SDS011;40499;47.830;19.026;2022-07-26T07:36:11;5.90;;;4.00;;
52984;SDS011;40499;47.830;19.026;2022-07-26T07:38:37;5.70;;;4.05;;
52984;SDS011;40499;47.830;19.026;2022-07-26T07:41:02;7.65;;;4.30;;
52984;SDS011;40499;47.830;19.026;2022-07-26T07:43:28;8.15;;;3.63;;
52984;SDS011;40499;47.830;19.026;2022-07-26T07:45:53;7.47;;;4.20;;
52984;SDS011;40499;47.830;19.026;2022-07-26T07:48:18;9.13;;;4.63;;
52984;SDS011;40499;47.830;19.026;2022-07-26T07:50:44;7.32;;;3.65;;
52984;SDS011;40499;47.830;19.026;2022-07-26T07:53:09;8.18;;;4.43;;
52984;SDS011;40499;47.830;19.026;2022-07-26T07:55:35;11.70;;;4.43;;
52984;SDS011;40499;47.830;19.026;2022-07-26T07:58:00;8.57;;;4.28;;
52984;SDS011;40499;47.830;19.026;2022-07-26T08:00:26;7.13;;;3.78;;
52984;SDS011;40499;47.830;19.026;2022-07-26T08:02:51;7.43;;;4.15;;
52984;SDS011;40499;47.830;19.026;2022-07-26T08:05:17;6.85;;;3.80;;
52984;SDS011;40499;47.830;19.026;2022-07-26T08:07:43;6.05;;;4.28;;
52984;SDS011;40499;47.830;19.026;2022-07-26T08:10:08;7.90;;;4.80;;
52984;SDS011;40499;47.830;19.026;2022-07-26T08:12:34;9.35;;;4.78;;
52984;SDS011;40499;47.830;19.026;2022-07-26T08:15:00;5.68;;;4.00;;
52984;SDS011;40499;47.830;19.026;2022-07-26T08:17:26;8.98;;;4.35;;
52984;SDS011;40499;47.830;19.026;2022-07-26T08:19:51;6.13;;;3.55;;
52984;SDS011;40499;47.830;19.026;2022-07-26T08:22:17;5.28;;;4.43;;
52984;SDS011;40499;47.830;19.026;2022-07-26T08:24:42;6.60;;;4.07;;
52984;SDS011;40499;47.830;19.026;2022-07-26T08:27:10;10.18;;;4.20;;
52984;SDS011;40499;47.830;19.026;2022-07-26T08:29:36;5.95;;;4.18;;
52984;SDS011;40499;47.830;19.026;2022-07-26T08:32:02;15.82;;;5.65;;
52984;SDS011;40499;47.830;19.026;2022-07-26T08:34:27;7.75;;;3.67;;
52984;SDS011;40499;47.830;19.026;2022-07-26T08:36:53;8.20;;;4.32;;
52984;SDS011;40499;47.830;19.026;2022-07-26T08:39:18;8.77;;;4.00;;
52984;SDS011;40499;47.830;19.026;2022-07-26T08:41:44;5.07;;;3.38;;
52984;SDS011;40499;47.830;19.026;2022-07-26T08:44:09;5.10;;;4.45;;
52984;SDS011;40499;47.830;19.026;2022-07-26T08:46:36;7.30;;;4.07;;
52984;SDS011;40499;47.830;19.026;2022-07-26T08:49:04;9.30;;;4.15;;
52984;SDS011;40499;47.830;19.026;2022-07-26T08:51:31;5.10;;;3.53;;
52984;SDS011;40499;47.830;19.026;2022-07-26T08:53:58;6.05;;;3.95;;
52984;SDS011;40499;47.830;19.026;2022-07-26T08:56:25;8.95;;;4.25;;
52984;SDS011;40499;47.830;19.026;2022-07-26T08:58:50;4.82;;;4.05;;
52984;SDS011;40499;47.830;19.026;2022-07-26T09:01:16;4.68;;;3.75;;
52984;SDS011;40499;47.830;19.026;2022-07-26T09:03:41;10.32;;;4.50;;
52984;SDS011;40499;47.830;19.026;2022-07-26T09:08:45;6.15;;;4.03;;
52984;SDS011;40499;47.830;19.026;2022-07-26T09:11:28;6.50;;;4.43;;
52984;SDS011;40499;47.830;19.026;2022-07-26T09:14:04;7.70;;;3.92;;
52984;SDS011;40499;47.830;19.026;2022-07-26T09:16:30;9.05;;;4.60;;
52984;SDS011;40499;47.830;19.026;2022-07-26T09:19:16;4.50;;;4.10;;
52984;SDS011;40499;47.830;19.026;2022-07-26T09:21:45;6.15;;;4.40;;
52984;SDS011;40499;47.830;19.026;2022-07-26T09:24:10;6.30;;;4.22;;
52984;SDS011;40499;47.830;19.026;2022-07-26T09:26:36;12.05;;;4.60;;
52984;SDS011;40499;47.830;19.026;2022-07-26T09:31:32;6.53;;;4.85;;
52984;SDS011;40499;47.830;19.026;2022-07-26T09:33:59;8.07;;;4.88;;
52984;SDS011;40499;47.830;19.026;2022-07-26T09:36:25;5.05;;;4.22;;
52984;SDS011;40499;47.830;19.026;2022-07-26T09:38:52;7.47;;;4.93;;
52984;SDS011;40499;47.830;19.026;2022-07-26T09:43:45;6.10;;;4.90;;
52984;SDS011;40499;47.830;19.026;2022-07-26T09:46:10;5.07;;;4.20;;
52984;SDS011;40499;47.830;19.026;2022-07-26T09:48:36;5.40;;;4.13;;
52984;SDS011;40499;47.830;19.026;2022-07-26T09:51:05;6.32;;;3.47;;
52984;SDS011;40499;47.830;19.026;2022-07-26T09:53:44;8.38;;;3.38;;
52984;SDS011;40499;47.830;19.026;2022-07-26T09:56:11;6.25;;;3.53;;
52984;SDS011;40499;47.830;19.026;2022-07-26T09:58:37;7.95;;;3.55;;
52984;SDS011;40499;47.830;19.026;2022-07-26T10:01:04;8.00;;;3.70;;
52984;SDS011;40499;47.830;19.026;2022-07-26T10:03:31;4.60;;;3.25;;
52984;SDS011;40499;47.830;19.026;2022-07-26T10:05:58;4.78;;;2.95;;
52984;SDS011;40499;47.830;19.026;2022-07-26T10:08:25;7.70;;;4.38;;
52984;SDS011;40499;47.830;19.026;2022-07-26T10:11:05;10.50;;;4.47;;
52984;SDS011;40499;47.830;19.026;2022-07-26T10:13:32;11.77;;;5.07;;
52984;SDS011;40499;47.830;19.026;2022-07-26T10:15:58;12.65;;;5.38;;
52984;SDS011;40499;47.830;19.026;2022-07-26T10:23:56;12.10;;;5.68;;
52984;SDS011;40499;47.830;19.026;2022-07-26T10:31:45;11.20;;;5.75;;
52984;SDS011;40499;47.830;19.026;2022-07-26T10:36:58;11.38;;;6.15;;
52984;SDS011;40499;47.830;19.026;2022-07-26T10:39:25;9.20;;;6.25;;
52984;SDS011;40499;47.830;19.026;2022-07-26T10:42:01;13.32;;;5.93;;
52984;SDS011;40499;47.830;19.026;2022-07-26T10:44:30;13.35;;;6.25;;
52984;SDS011;40499;47.830;19.026;2022-07-26T10:46:58;7.68;;;5.38;;
52984;SDS011;40499;47.830;19.026;2022-07-26T10:49:36;8.25;;;6.03;;
52984;SDS011;40499;47.830;19.026;2022-07-26T10:52:16;7.20;;;6.25;;
52984;SDS011;40499;47.830;19.026;2022-07-26T10:57:24;11.18;;;6.15;;
52984;SDS011;40499;47.830;19.026;2022-07-26T10:59:51;8.85;;;5.35;;
52984;SDS011;40499;47.830;19.026;2022-07-26T11:02:17;10.00;;;6.45;;
52984;SDS011;40499;47.830;19.026;2022-07-26T11:04:44;10.45;;;6.40;;
52984;SDS011;40499;47.830;19.026;2022-07-26T11:07:10;7.82;;;5.95;;
52984;SDS011;40499;47.830;19.026;2022-07-26T11:09:37;11.65;;;6.05;;
52984;SDS011;40499;47.830;19.026;2022-07-26T11:12:36;8.55;;;6.30;;
52984;SDS011;40499;47.830;19.026;2022-07-26T11:14:54;9.70;;;6.50;;
52984;SDS011;40499;47.830;19.026;2022-07-26T11:19:49;13.48;;;6.65;;
52984;SDS011;40499;47.830;19.026;2022-07-26T11:22:15;8.95;;;6.43;;
52984;SDS011;40499;47.830;19.026;2022-07-26T11:24:41;8.05;;;6.68;;
52984;SDS011;40499;47.830;19.026;2022-07-26T11:27:06;9.10;;;6.63;;
52984;SDS011;40499;47.830;19.026;2022-07-26T11:29:33;8.18;;;6.10;;
52984;SDS011;40499;47.830;19.026;2022-07-26T11:31:59;9.88;;;6.35;;
52984;SDS011;40499;47.830;19.026;2022-07-26T11:34:26;11.65;;;7.05;;
52984;SDS011;40499;47.830;19.026;2022-07-26T11:36:54;8.68;;;6.45;;
52984;SDS011;40499;47.830;19.026;2022-07-26T11:39:22;9.25;;;6.60;;
52984;SDS011;40499;47.830;19.026;2022-07-26T11:41:56;10.93;;;6.65;;
52984;SDS011;40499;47.830;19.026;2022-07-26T11:44:27;7.38;;;6.53;;
52984;SDS011;40499;47.830;19.026;2022-07-26T11:46:54;9.57;;;6.55;;
52984;SDS011;40499;47.830;19.026;2022-07-26T11:49:26;9.00;;;6.60;;
52984;SDS011;40499;47.830;19.026;2022-07-26T11:51:56;10.05;;;6.63;;
52984;SDS011;40499;47.830;19.026;2022-07-26T11:54:30;10.95;;;6.63;;
52984;SDS011;40499;47.830;19.026;2022-07-26T11:59:29;10.07;;;6.45;;
52984;SDS011;40499;47.830;19.026;2022-07-26T12:01:57;7.63;;;5.75;;
52984;SDS011;40499;47.830;19.026;2022-07-26T12:06:51;9.57;;;6.45;;
52984;SDS011;40499;47.830;19.026;2022-07-26T12:09:33;8.00;;;6.85;;
52984;SDS011;40499;47.830;19.026;2022-07-26T12:11:59;8.55;;;7.35;;
52984;SDS011;40499;47.830;19.026;2022-07-26T12:14:27;12.32;;;7.63;;
52984;SDS011;40499;47.830;19.026;2022-07-26T12:16:54;10.05;;;7.57;;
52984;SDS011;40499;47.830;19.026;2022-07-26T12:21:50;9.07;;;7.25;;
52984;SDS011;40499;47.830;19.026;2022-07-26T12:27:28;9.68;;;7.18;;
52984;SDS011;40499;47.830;19.026;2022-07-26T12:29:55;12.02;;;8.90;;
52984;SDS011;40499;47.830;19.026;2022-07-26T12:32:39;12.20;;;9.00;;
52984;SDS011;40499;47.830;19.026;2022-07-26T12:35:07;10.63;;;9.48;;
52984;SDS011;40499;47.830;19.026;2022-07-26T12:37:47;12.57;;;8.90;;
52984;SDS011;40499;47.830;19.026;2022-07-26T12:40:58;12.65;;;10.23;;
52984;SDS011;40499;47.830;19.026;2022-07-26T12:43:05;11.50;;;9.85;;
52984;SDS011;40499;47.830;19.026;2022-07-26T12:45:31;12.40;;;9.40;;
52984;SDS011;40499;47.830;19.026;2022-07-26T12:47:59;12.30;;;10.40;;
52984;SDS011;40499;47.830;19.026;2022-07-26T12:50:26;12.65;;;9.70;;
52984;SDS011;40499;47.830;19.026;2022-07-26T12:52:59;11.95;;;9.07;;
52984;SDS011;40499;47.830;19.026;2022-07-26T12:55:25;12.75;;;9.77;;
52984;SDS011;40499;47.830;19.026;2022-07-26T12:57:51;13.98;;;10.18;;
52984;SDS011;40499;47.830;19.026;2022-07-26T13:00:17;11.35;;;9.75;;
52984;SDS011;40499;47.830;19.026;2022-07-26T13:02:42;10.65;;;8.55;;
52984;SDS011;40499;47.830;19.026;2022-07-26T13:05:09;12.45;;;9.43;;
52984;SDS011;40499;47.830;19.026;2022-07-26T13:07:35;11.50;;;9.10;;
52984;SDS011;40499;47.830;19.026;2022-07-26T13:10:01;10.27;;;9.20;;
52984;SDS011;40499;47.830;19.026;2022-07-26T13:12:28;10.98;;;8.68;;
52984;SDS011;40499;47.830;19.026;2022-07-26T13:14:54;11.32;;;8.63;;
52984;SDS011;40499;47.830;19.026;2022-07-26T13:17:19;9.73;;;8.73;;
52984;SDS011;40499;47.830;19.026;2022-07-26T13:19:45;12.35;;;9.10;;
52984;SDS011;40499;47.830;19.026;2022-07-26T13:22:10;11.55;;;9.35;;
52984;SDS011;40499;47.830;19.026;2022-07-26T13:24:36;10.10;;;9.07;;
52984;SDS011;40499;47.830;19.026;2022-07-26T13:27:03;11.13;;;8.82;;
52984;SDS011;40499;47.830;19.026;2022-07-26T13:29:30;11.43;;;8.68;;
52984;SDS011;40499;47.830;19.026;2022-07-26T13:31:57;10.18;;;8.80;;
52984;SDS011;40499;47.830;19.026;2022-07-26T13:34:23;12.70;;;9.02;;
52984;SDS011;40499;47.830;19.026;2022-07-26T13:36:51;11.05;;;9.40;;
52984;SDS011;40499;47.830;19.026;2022-07-26T13:39:17;12.80;;;9.57;;
52984;SDS011;40499;47.830;19.026;2022-07-26T13:41:43;11.98;;;9.70;;
52984;SDS011;40499;47.830;19.026;2022-07-26T13:44:08;10.73;;;9.48;;
52984;SDS011;40499;47.830;19.026;2022-07-26T13:46:34;10.10;;;8.60;;
52984;SDS011;40499;47.830;19.026;2022-07-26T13:49:00;11.23;;;9.35;;
52984;SDS011;40499;47.830;19.026;2022-07-26T13:51:30;13.65;;;9.77;;
52984;SDS011;40499;47.830;19.026;2022-07-26T13:54:16;10.98;;;9.55;;
52984;SDS011;40499;47.830;19.026;2022-07-26T13:56:44;10.82;;;9.70;;
52984;SDS011;40499;47.830;19.026;2022-07-26T13:59:10;10.82;;;9.70;;
52984;SDS011;40499;47.830;19.026;2022-07-26T14:01:37;12.07;;;9.50;;
52984;SDS011;40499;47.830;19.026;2022-07-26T14:04:03;10.60;;;9.32;;
52984;SDS011;40499;47.830;19.026;2022-07-26T14:06:33;13.05;;;9.68;;
52984;SDS011;40499;47.830;19.026;2022-07-26T14:08:59;11.75;;;9.32;;
52984;SDS011;40499;47.830;19.026;2022-07-26T14:11:25;13.88;;;9.25;;
52984;SDS011;40499;47.830;19.026;2022-07-26T14:13:51;10.30;;;9.30;;
52984;SDS011;40499;47.830;19.026;2022-07-26T14:16:17;12.98;;;10.63;;
52984;SDS011;40499;47.830;19.026;2022-07-26T14:18:43;12.30;;;10.45;;
52984;SDS011;40499;47.830;19.026;2022-07-26T14:21:08;15.77;;;9.43;;
52984;SDS011;40499;47.830;19.026;2022-07-26T14:23:34;12.45;;;9.70;;
52984;SDS011;40499;47.830;19.026;2022-07-26T14:25:59;12.02;;;10.77;;
52984;SDS011;40499;47.830;19.026;2022-07-26T14:28:25;11.48;;;10.32;;
52984;SDS011;40499;47.830;19.026;2022-07-26T14:30:50;12.10;;;10.77;;
52984;SDS011;40499;47.830;19.026;2022-07-26T14:33:16;12.00;;;10.73;;
52984;SDS011;40499;47.830;19.026;2022-07-26T14:35:41;15.43;;;11.07;;
52984;SDS011;40499;47.830;19.026;2022-07-26T14:38:08;11.40;;;10.20;;
52984;SDS011;40499;47.830;19.026;2022-07-26T14:40:34;14.13;;;11.40;;
52984;SDS011;40499;47.830;19.026;2022-07-26T14:43:00;13.65;;;10.57;;
52984;SDS011;40499;47.830;19.026;2022-07-26T14:45:26;12.50;;;10.55;;
52984;SDS011;40499;47.830;19.026;2022-07-26T14:47:51;11.82;;;10.02;;
52984;SDS011;40499;47.830;19.026;2022-07-26T14:50:17;11.23;;;10.13;;
52984;SDS011;40499;47.830;19.026;2022-07-26T14:52:44;12.77;;;9.70;;
52984;SDS011;40499;47.830;19.026;2022-07-26T14:55:11;11.32;;;9.75;;
52984;SDS011;40499;47.830;19.026;2022-07-26T14:57:37;12.70;;;10.10;;
52984;SDS011;40499;47.830;19.026;2022-07-26T15:00:03;11.07;;;9.93;;
52984;SDS011;40499;47.830;19.026;2022-07-26T15:02:30;10.30;;;9.00;;
52984;SDS011;40499;47.830;19.026;2022-07-26T15:04:55;11.73;;;10.18;;